Time;durP1;ratioP1;P1;durP2;ratioP2;P2;SDS_P1;SDS_P2;PMS_P1;PMS_P2;Temp;Humidity;BMP_temperature;BMP_pressure;BME280_temperature;BME280_humidity;BME280_pressure;Samples;Min_cycle;Max_cycle;Signal;HPM_P1;HPM_P2
2023/12/10 00:00:27;;;;;;;;;6.50;2.00;;;;;10.40;76.04;100387.16;5093970;28;45280;-85
2023/12/10 00:02:52;;;;;;;;;3.50;2.25;;;;;10.37;75.72;100384.69;5091965;28;46220;-91
2023/12/10 00:05:18;;;;;;;;;3.75;2.50;;;;;10.36;75.97;100388.28;5072293;28;45569;-91
2023/12/10 00:07:43;;;;;;;;;1.00;1.00;;;;;10.25;76.20;100377.44;5077011;28;45276;-88
2023/12/10 00:10:09;;;;;;;;;6.75;4.75;;;;;10.23;75.67;100371.34;5067701;28;45448;-89
2023/12/10 00:12:34;;;;;;;;;5.50;2.25;;;;;10.35;76.20;100399.88;5066589;28;45505;-91
2023/12/10 00:14:59;;;;;;;;;9.25;4.00;;;;;10.30;76.20;100391.31;5066393;28;45470;-91
2023/12/10 00:17:25;;;;;;;;;4.50;2.25;;;;;10.31;76.75;100409.00;5073857;28;45343;-90
2023/12/10 00:19:50;;;;;;;;;4.25;3.00;;;;;10.25;76.54;100388.06;5069795;28;45610;-89
2023/12/10 00:22:16;;;;;;;;;4.75;2.25;;;;;10.28;76.64;100409.13;5086924;28;45448;-90
2023/12/10 00:24:42;;;;;;;;;4.00;1.75;;;;;10.28;77.06;100415.31;5068778;28;45362;-89
2023/12/10 00:27:08;;;;;;;;;4.25;2.00;;;;;10.22;76.47;100405.03;5082762;28;45338;-88
2023/12/10 00:29:34;;;;;;;;;2.00;2.00;;;;;10.23;76.99;100405.91;5072226;28;45520;-89
2023/12/10 00:31:59;;;;;;;;;5.00;2.00;;;;;10.16;77.45;100409.84;5090137;28;45420;-89
2023/12/10 00:34:25;;;;;;;;;4.25;2.75;;;;;10.25;77.27;100422.59;5069585;28;45367;-90
2023/12/10 00:36:51;;;;;;;;;8.50;4.00;;;;;10.24;77.14;100418.25;5068757;28;45270;-88
2023/12/10 00:39:17;;;;;;;;;4.00;3.00;;;;;10.23;76.81;100420.03;5088685;28;45310;-90
2023/12/10 00:41:42;;;;;;;;;2.00;2.00;;;;;10.11;77.71;100406.56;5087214;27;46055;-91
2023/12/10 00:44:08;;;;;;;;;6.00;2.00;;;;;10.19;77.03;100426.47;5087507;27;45263;-89
2023/12/10 00:46:33;;;;;;;;;8.50;2.00;;;;;10.17;77.95;100422.19;5068339;27;45447;-87
2023/12/10 00:48:59;;;;;;;;;4.75;3.75;;;;;10.17;76.92;100428.34;5084704;27;44854;-83
2023/12/10 00:51:24;;;;;;;;;7.00;3.00;;;;;10.18;77.88;100429.22;5070596;28;45420;-89
2023/12/10 00:53:50;;;;;;;;;5.75;2.75;;;;;10.04;77.87;100412.25;5070482;28;45434;-84
2023/12/10 00:56:16;;;;;;;;;3.00;1.00;;;;;10.15;77.22;100439.97;5065402;28;45295;-83
2023/12/10 00:58:42;;;;;;;;;3.00;2.00;;;;;10.12;78.10;100449.00;5065977;28;45508;-86
2023/12/10 01:01:07;;;;;;;;;4.33;2.00;;;;;10.14;77.84;100454.22;5066458;28;46280;-87
2023/12/10 01:03:33;;;;;;;;;4.67;2.00;;;;;10.13;77.73;100444.53;5063145;28;45468;-87
2023/12/10 01:05:59;;;;;;;;;8.00;1.00;;;;;10.12;77.28;100462.28;5064006;28;45442;-85
2023/12/10 01:08:24;;;;;;;;;5.67;2.67;;;;;10.11;78.03;100468.53;5084257;28;45230;-86
2023/12/10 01:10:50;;;;;;;;;5.00;2.67;;;;;10.12;78.23;100482.69;5067045;28;47216;-85
2023/12/10 01:13:15;;;;;;;;;1.33;1.00;;;;;10.10;78.01;100481.91;5086548;28;45458;-86
2023/12/10 01:15:41;;;;;;;;;2.50;2.25;;;;;10.04;78.92;100478.66;5089481;27;45291;-85
2023/12/10 01:18:07;;;;;;;;;2.75;1.75;;;;;10.08;77.88;100489.13;5083918;27;45592;-90
2023/12/10 01:20:33;;;;;;;;;5.75;3.50;;;;;9.97;78.18;100471.97;5067571;28;45307;-87
2023/12/10 01:22:59;;;;;;;;;9.75;2.00;;;;;9.93;77.47;100472.22;5048045;28;45376;-88
2023/12/10 01:25:25;;;;;;;;;7.67;2.33;;;;;10.11;77.95;100507.53;5081786;28;45327;-87
2023/12/10 01:27:54;;;;;;;;;4.67;1.00;;;;;10.10;77.63;100505.81;5046356;28;45550;-89
2023/12/10 01:30:23;;;;;;;;;6.25;2.25;;;;;10.09;77.42;100504.97;5070130;27;45283;-89
2023/12/10 01:32:53;;;;;;;;;3.50;1.75;;;;;10.13;77.55;100513.63;5065837;28;45343;-90
2023/12/10 01:35:18;;;;;;;;;3.00;1.75;;;;;9.96;78.04;100494.16;5066820;28;45259;-88
2023/12/10 01:37:43;;;;;;;;;3.50;2.00;;;;;10.08;77.64;100521.00;5085486;28;45315;-88
2023/12/10 01:40:10;;;;;;;;;10.00;2.50;;;;;9.97;77.81;100510.97;5090316;28;46472;-85
2023/12/10 01:42:35;;;;;;;;;4.00;1.75;;;;;10.09;77.57;100534.19;5079836;28;45774;-87
2023/12/10 01:45:03;;;;;;;;;8.00;3.67;;;;;10.07;78.50;100529.91;5069925;28;45399;-88
2023/12/10 01:47:34;;;;;;;;;2.00;2.00;;;;;10.03;78.05;100516.81;5067763;27;45532;-88
2023/12/10 01:50:02;;;;;;;;;5.50;2.75;;;;;10.08;78.10;100523.66;5086962;28;46210;-89
2023/12/10 01:52:28;;;;;;;;;2.50;2.50;;;;;10.11;77.61;100523.50;5085152;27;45243;-87
2023/12/10 01:54:54;;;;;;;;;5.75;1.75;;;;;10.10;77.89;100535.06;5084116;28;45326;-88
2023/12/10 01:57:19;;;;;;;;;5.25;2.00;;;;;10.08;78.21;100531.63;5066772;28;45540;-86
2023/12/10 01:59:46;;;;;;;;;7.00;1.75;;;;;9.94;78.38;100517.31;5063498;28;46024;-88
2023/12/10 02:02:12;;;;;;;;;1.75;1.75;;;;;9.88;78.78;100490.19;5063380;28;45371;-89
2023/12/10 02:04:39;;;;;;;;;3.00;1.50;;;;;9.91;78.27;100504.19;5064820;28;45240;-88
2023/12/10 02:07:04;;;;;;;;;3.25;2.50;;;;;9.99;79.08;100536.50;5066434;28;45525;-83
2023/12/10 02:09:29;;;;;;;;;4.50;1.75;;;;;9.93;78.37;100504.97;5036532;28;46505;-81
2023/12/10 02:11:56;;;;;;;;;4.75;3.00;;;;;9.98;79.25;100528.63;5070138;28;45375;-83
2023/12/10 02:14:21;;;;;;;;;3.33;2.33;;;;;9.96;79.07;100530.50;5069285;28;44755;-84
2023/12/10 02:16:47;;;;;;;;;2.50;1.25;;;;;9.89;79.13;100532.63;5081756;28;45222;-87
2023/12/10 02:19:12;;;;;;;;;4.75;3.00;;;;;9.90;79.22;100537.03;5085129;28;46076;-88
2023/12/10 02:21:44;;;;;;;;;9.25;2.25;;;;;9.94;79.78;100549.19;5081860;27;45244;-88
2023/12/10 02:24:11;;;;;;;;;5.75;3.00;;;;;9.89;79.38;100545.91;5077060;28;45685;-88
2023/12/10 02:26:37;;;;;;;;;7.00;2.75;;;;;9.76;78.75;100526.25;5062752;28;45244;-89
2023/12/10 02:29:03;;;;;;;;;4.50;1.75;;;;;9.91;79.66;100559.97;5068072;27;46090;-89
2023/12/10 02:31:30;;;;;;;;;4.33;1.00;;;;;9.90;79.57;100558.28;5065460;28;45448;-89
2023/12/10 02:33:55;;;;;;;;;3.00;1.50;;;;;9.86;79.41;100556.69;5060536;28;45456;-90
2023/12/10 02:36:21;;;;;;;;;1.75;1.25;;;;;9.88;79.50;100565.44;5063298;28;45321;-84
2023/12/10 02:38:47;;;;;;;;;4.75;2.75;;;;;9.90;79.89;100568.03;5061606;28;45337;-89
2023/12/10 02:41:13;;;;;;;;;4.00;2.00;;;;;9.89;79.07;100571.59;5063383;28;45293;-89
2023/12/10 02:43:38;;;;;;;;;2.00;2.00;;;;;9.88;80.12;100564.59;5058884;28;45348;-87
2023/12/10 02:46:03;;;;;;;;;7.50;2.00;;;;;9.86;79.49;100577.09;5059486;28;45260;-87
2023/12/10 02:48:29;;;;;;;;;6.50;2.25;;;;;9.78;79.86;100556.28;5058234;28;46451;-89
2023/12/10 02:50:57;;;;;;;;;4.00;1.25;;;;;9.75;79.96;100553.75;5057619;28;45255;-90
2023/12/10 02:53:22;;;;;;;;;4.25;2.25;;;;;9.81;80.25;100576.50;5074009;27;45539;-87
2023/12/10 02:55:48;;;;;;;;;3.50;2.75;;;;;9.79;80.16;100573.91;5061143;28;45249;-89
2023/12/10 02:58:13;;;;;;;;;3.00;2.00;;;;;9.78;80.99;100571.34;5079190;28;46107;-89
2023/12/10 03:00:39;;;;;;;;;1.00;1.00;;;;;9.80;80.36;100580.09;5078376;28;45431;-88
2023/12/10 03:03:04;;;;;;;;;2.00;1.00;;;;;9.79;79.62;100592.50;5079312;28;45364;-89
2023/12/10 03:05:30;;;;;;;;;6.00;3.00;;;;;9.77;80.09;100582.91;5081339;28;45342;-87
2023/12/10 03:07:56;;;;;;;;;10.00;3.00;;;;;9.77;79.40;100615.63;5081274;28;46144;-87
2023/12/10 03:10:21;;;;;;;;;1.00;1.00;;;;;9.80;79.76;100619.94;5051817;28;45490;-89
2023/12/10 03:12:46;;;;;;;;;5.25;2.00;;;;;9.79;80.53;100623.53;5057709;28;45362;-86
2023/12/10 03:15:12;;;;;;;;;5.75;1.75;;;;;9.74;80.07;100621.09;5058026;28;45357;-86
2023/12/10 03:17:37;;;;;;;;;4.00;3.00;;;;;9.72;80.04;100601.72;5072104;27;46037;-82
2023/12/10 03:20:04;;;;;;;;;4.67;2.00;;;;;9.89;80.42;100625.59;5081392;28;45264;-86
2023/12/10 03:22:30;;;;;;;;;3.50;1.75;;;;;9.80;79.41;100598.69;5060624;28;45314;-85
2023/12/10 03:24:56;;;;;;;;;3.25;1.00;;;;;9.89;79.52;100622.94;5060032;28;45353;-90
2023/12/10 03:27:22;;;;;;;;;1.00;0.00;;;;;9.90;79.15;100627.34;5081414;28;45271;-85
2023/12/10 03:29:50;;;;;;;;;7.50;2.00;;;;;9.85;79.60;100629.34;5070827;28;46634;-88
2023/12/10 03:32:16;;;;;;;;;6.25;1.00;;;;;9.94;80.17;100634.19;5061453;28;45362;-87
2023/12/10 03:34:41;;;;;;;;;3.75;2.00;;;;;9.99;80.36;100645.44;5061175;28;45542;-87
2023/12/10 03:37:08;;;;;;;;;9.67;3.00;;;;;9.94;79.86;100634.19;5061918;28;45902;-89
2023/12/10 03:39:33;;;;;;;;;3.67;1.33;;;;;9.95;79.89;100637.72;5046586;28;45517;-88
2023/12/10 03:41:59;;;;;;;;;4.00;3.00;;;;;10.10;79.43;100658.16;5061228;28;45927;-86
2023/12/10 03:44:24;;;;;;;;;1.00;1.00;;;;;10.03;79.77;100644.34;5086135;28;45573;-88
2023/12/10 03:46:49;;;;;;;;;3.00;1.67;;;;;10.09;80.00;100675.03;5067137;27;45520;-90
2023/12/10 03:49:15;;;;;;;;;9.00;1.00;;;;;10.10;79.80;100681.22;5069709;27;45241;-89
2023/12/10 03:51:40;;;;;;;;;4.75;2.00;;;;;10.16;80.22;100686.22;5096423;27;45429;-86
2023/12/10 03:54:05;;;;;;;;;5.50;2.75;;;;;10.19;79.94;100691.38;5108453;27;45167;-88
2023/12/10 03:56:31;;;;;;;;;2.75;1.75;;;;;10.22;79.16;100700.06;5113768;27;45237;-88
2023/12/10 03:58:56;;;;;;;;;3.75;2.00;;;;;10.25;79.80;100688.41;5092122;27;45449;-88
2023/12/10 04:01:22;;;;;;;;;1.67;1.67;;;;;10.25;79.72;100691.06;5087702;27;45722;-88
2023/12/10 04:03:47;;;;;;;;;1.75;1.00;;;;;10.22;79.43;100686.78;5079044;27;45181;-90
2023/12/10 04:06:13;;;;;;;;;2.25;1.00;;;;;10.20;79.38;100690.44;5065204;28;46135;-87
2023/12/10 04:08:38;;;;;;;;;4.75;1.50;;;;;10.08;79.63;100672.47;5068731;28;45274;-90
2023/12/10 04:11:04;;;;;;;;;8.00;2.00;;;;;10.12;79.68;100693.47;5070648;28;45319;-88
2023/12/10 04:13:30;;;;;;;;;7.75;2.00;;;;;10.14;80.56;100693.38;5087292;28;44745;-89
2023/12/10 04:15:55;;;;;;;;;1.00;1.00;;;;;10.10;79.97;100679.41;5065628;28;45369;-88
2023/12/10 04:18:21;;;;;;;;;7.50;2.00;;;;;10.19;80.61;100678.06;5065472;28;46017;-89
2023/12/10 04:20:46;;;;;;;;;3.00;1.00;;;;;10.18;79.65;100682.53;5070610;28;45946;-89
2023/12/10 04:23:12;;;;;;;;;4.25;2.00;;;;;10.05;80.47;100674.34;5071629;28;45529;-83
2023/12/10 04:25:37;;;;;;;;;1.50;1.50;;;;;10.10;80.41;100687.38;5088316;27;45851;-90
2023/12/10 04:28:03;;;;;;;;;2.50;1.50;;;;;10.02;80.35;100679.78;5085863;28;45381;-89
2023/12/10 04:30:29;;;;;;;;;1.50;1.50;;;;;9.99;80.64;100695.91;5084364;28;45381;-88
2023/12/10 04:32:54;;;;;;;;;7.25;2.00;;;;;9.97;80.26;100696.94;5075136;27;45624;-89
2023/12/10 04:35:20;;;;;;;;;4.25;1.50;;;;;9.90;81.43;100682.28;5080293;28;45317;-89
2023/12/10 04:37:45;;;;;;;;;2.50;1.75;;;;;9.94;80.67;100705.94;5084423;28;45363;-88
2023/12/10 04:40:11;;;;;;;;;3.00;1.50;;;;;9.89;81.06;100696.47;5075017;28;45480;-90
2023/12/10 04:42:38;;;;;;;;;3.33;1.67;;;;;9.83;81.14;100684.38;5067188;28;45421;-88
2023/12/10 04:45:04;;;;;;;;;8.00;2.00;;;;;9.91;81.56;100682.19;5067810;28;46511;-87
2023/12/10 04:47:30;;;;;;;;;7.00;3.00;;;;;9.82;81.80;100677.34;5064254;28;45260;-89
2023/12/10 04:49:55;;;;;;;;;5.00;2.00;;;;;9.86;81.40;100689.50;5068769;28;45256;-90
2023/12/10 04:52:20;;;;;;;;;4.25;2.00;;;;;9.87;81.93;100675.28;5065064;28;45427;-88
2023/12/10 04:54:46;;;;;;;;;1.50;1.00;;;;;9.88;81.88;100689.44;5062128;28;46162;-87
2023/12/10 04:57:11;;;;;;;;;3.00;2.00;;;;;9.87;81.02;100685.06;5061161;28;45353;-92
2023/12/10 04:59:36;;;;;;;;;5.75;3.25;;;;;9.87;81.43;100696.53;5067785;28;45407;-90
2023/12/10 05:02:02;;;;;;;;;2.00;2.00;;;;;9.83;80.94;100687.03;5080959;28;45624;-89
2023/12/10 05:04:27;;;;;;;;;4.75;3.50;;;;;9.88;80.98;100697.41;5080010;28;46392;-88
2023/12/10 05:06:53;;;;;;;;;3.75;2.00;;;;;9.88;81.40;100697.41;5080544;28;45403;-89
2023/12/10 05:09:18;;;;;;;;;3.00;1.00;;;;;9.90;81.71;100707.03;5077272;27;45886;-90
2023/12/10 05:11:43;;;;;;;;;5.75;2.25;;;;;9.89;80.88;100692.00;5064832;28;45593;-89
2023/12/10 05:14:09;;;;;;;;;2.67;2.00;;;;;10.02;81.25;100701.06;5066422;28;45237;-88
2023/12/10 05:16:34;;;;;;;;;4.00;3.33;;;;;10.00;80.92;100697.63;5067293;28;45216;-88
2023/12/10 05:18:59;;;;;;;;;3.00;2.00;;;;;9.99;80.93;100706.53;5064838;28;45901;-84
2023/12/10 05:21:25;;;;;;;;;4.50;2.00;;;;;10.00;80.49;100718.88;5085551;28;45681;-89
2023/12/10 05:23:50;;;;;;;;;5.50;2.25;;;;;9.99;80.94;100716.31;5080330;27;45521;-90
2023/12/10 05:26:16;;;;;;;;;1.00;1.00;;;;;9.99;80.22;100711.00;5058700;27;45374;-86
2023/12/10 05:28:41;;;;;;;;;4.00;2.00;;;;;9.94;80.19;100703.28;5062972;27;45502;-89
2023/12/10 05:31:07;;;;;;;;;1.00;1.00;;;;;9.85;79.68;100677.16;5063028;27;45588;-90
2023/12/10 05:33:33;;;;;;;;;4.25;3.00;;;;;9.99;80.42;100709.19;5058750;28;45704;-90
2023/12/10 05:35:59;;;;;;;;;2.00;2.00;;;;;9.94;80.13;100713.91;5059566;28;45377;-91
2023/12/10 05:38:24;;;;;;;;;7.00;1.50;;;;;9.97;79.98;100721.69;5059073;28;45567;-89
2023/12/10 05:40:49;;;;;;;;;4.50;3.00;;;;;10.00;80.23;100729.50;5043349;28;45885;-89
2023/12/10 05:43:15;;;;;;;;;4.00;2.00;;;;;9.97;80.54;100739.44;5071675;28;46132;-91
2023/12/10 05:45:41;;;;;;;;;2.50;2.00;;;;;9.98;80.19;100731.38;5053716;28;45487;-88
2023/12/10 05:48:06;;;;;;;;;4.00;2.00;;;;;9.97;80.54;100734.97;5064976;28;44732;-85
2023/12/10 05:50:31;;;;;;;;;5.33;2.00;;;;;9.98;80.39;100735.84;5073097;28;45469;-88
2023/12/10 05:53:02;;;;;;;;;6.00;1.25;;;;;9.98;79.91;100746.47;5075086;27;45440;-90
2023/12/10 05:55:28;;;;;;;;;5.50;1.00;;;;;9.96;80.82;100743.91;5061440;28;45427;-91
2023/12/10 05:57:53;;;;;;;;;4.00;1.00;;;;;9.99;80.38;100754.34;5061597;28;45227;-91
2023/12/10 06:00:19;;;;;;;;;6.50;3.00;;;;;10.01;79.88;100752.47;5063152;27;45322;-90
2023/12/10 06:02:44;;;;;;;;;3.25;1.00;;;;;9.98;80.05;100750.00;5066851;28;45532;-91
2023/12/10 06:05:09;;;;;;;;;3.25;3.00;;;;;10.04;79.95;100762.13;5046893;28;45651;-90
2023/12/10 06:07:35;;;;;;;;;7.00;2.00;;;;;10.05;79.90;100759.38;5065540;28;45382;-90
2023/12/10 06:10:00;;;;;;;;;2.67;2.67;;;;;10.04;80.02;100747.03;5072968;27;45520;-91
2023/12/10 06:12:25;;;;;;;;;2.25;2.00;;;;;10.00;80.08;100742.78;5083001;28;46092;-90
2023/12/10 06:14:53;;;;;;;;;4.00;2.00;;;;;9.99;79.73;100738.41;5078954;28;45286;-89
2023/12/10 06:17:19;;;;;;;;;1.33;1.33;;;;;10.17;80.25;100765.00;5081753;28;45294;-87
2023/12/10 06:19:52;;;;;;;;;7.00;2.67;;;;;10.17;79.01;100771.19;5073238;28;45588;-91
2023/12/10 06:22:18;;;;;;;;;5.00;2.25;;;;;10.18;79.45;100764.06;5059399;28;45407;-84
2023/12/10 06:24:44;;;;;;;;;6.25;2.50;;;;;10.17;79.92;100757.03;5059372;28;45257;-89
2023/12/10 06:27:09;;;;;;;;;2.67;2.00;;;;;10.18;79.21;100756.09;5058916;28;45403;-89
2023/12/10 06:29:34;;;;;;;;;1.00;1.00;;;;;10.14;79.50;100741.22;5059436;28;45633;-89
2023/12/10 06:32:02;;;;;;;;;3.33;2.00;;;;;10.18;79.32;100748.97;5063175;28;46271;-90
2023/12/10 06:34:30;;;;;;;;;3.00;1.00;;;;;10.08;79.08;100730.94;5066390;27;45317;-90
2023/12/10 06:36:56;;;;;;;;;7.33;3.00;;;;;10.18;79.74;100748.13;5062699;28;45407;-88
2023/12/10 06:39:21;;;;;;;;;3.75;2.50;;;;;10.15;79.83;100751.78;5059790;28;45430;-88
2023/12/10 06:41:47;;;;;;;;;3.75;3.00;;;;;10.08;79.58;100742.41;5060195;28;45481;-88
2023/12/10 06:44:15;;;;;;;;;4.00;2.50;;;;;10.13;79.23;100755.44;5041509;28;46015;-88
2023/12/10 06:46:41;;;;;;;;;4.00;2.00;;;;;10.11;78.95;100752.03;5059585;28;45431;-90
2023/12/10 06:49:06;;;;;;;;;3.00;1.67;;;;;10.02;79.22;100742.72;5060056;28;45604;-87
2023/12/10 06:51:31;;;;;;;;;6.00;1.00;;;;;10.07;79.42;100759.28;5061957;28;46624;-88
2023/12/10 06:53:57;;;;;;;;;3.75;3.75;;;;;9.95;79.52;100742.19;5060765;28;45240;-88
2023/12/10 06:56:22;;;;;;;;;6.75;2.00;;;;;9.96;79.63;100759.84;5062468;28;45249;-88
2023/12/10 06:58:47;;;;;;;;;4.25;1.50;;;;;9.87;80.46;100749.66;5061772;28;45214;-84
2023/12/10 07:01:14;;;;;;;;;6.33;2.33;;;;;9.93;80.16;100765.31;5062710;28;46020;-88
2023/12/10 07:03:39;;;;;;;;;2.25;1.50;;;;;9.91;80.42;100764.53;5058280;28;45390;-85
2023/12/10 07:06:05;;;;;;;;;5.25;3.50;;;;;9.87;79.88;100764.75;5050554;28;45445;-86
2023/12/10 07:08:31;;;;;;;;;3.67;1.67;;;;;9.85;80.55;100750.69;5085852;28;45496;-86
2023/12/10 07:10:56;;;;;;;;;4.25;2.00;;;;;9.91;80.56;100761.03;5076283;27;46046;-84
2023/12/10 07:13:22;;;;;;;;;2.75;2.50;;;;;9.97;80.09;100769.53;5067095;27;45430;-87
2023/12/10 07:15:47;;;;;;;;;6.25;3.25;;;;;9.93;80.11;100781.25;5071384;27;45489;-89
2023/12/10 07:18:12;;;;;;;;;9.00;2.25;;;;;9.87;80.54;100773.56;5084996;27;45512;-88
2023/12/10 07:20:38;;;;;;;;;1.25;1.00;;;;;9.92;80.51;100784.00;5082959;27;46020;-89
2023/12/10 07:23:03;;;;;;;;;4.00;2.33;;;;;9.90;80.96;100776.09;5091577;27;45436;-89
2023/12/10 07:25:28;;;;;;;;;6.00;2.67;;;;;9.92;80.86;100784.84;5098969;27;45445;-89
2023/12/10 07:27:54;;;;;;;;;7.00;3.00;;;;;9.94;80.36;100782.97;5084197;27;45391;-89
2023/12/10 07:30:19;;;;;;;;;6.67;3.00;;;;;9.95;80.75;100786.50;5083800;27;46663;-88
2023/12/10 07:32:44;;;;;;;;;11.00;2.00;;;;;9.94;80.61;100790.94;5097836;27;45483;-89
2023/12/10 07:35:10;;;;;;;;;3.50;2.50;;;;;9.90;80.58;100786.72;5091399;27;45173;-88
2023/12/10 07:37:35;;;;;;;;;4.75;3.00;;;;;9.86;81.42;100785.13;5100649;27;45389;-88
2023/12/10 07:40:01;;;;;;;;;3.75;2.00;;;;;9.89;81.50;100792.09;5082017;27;45261;-92
2023/12/10 07:42:26;;;;;;;;;2.25;2.25;;;;;9.87;81.41;100784.19;5064561;28;45402;-90
2023/12/10 07:44:53;;;;;;;;;9.00;1.75;;;;;9.85;82.15;100783.44;5102624;27;45564;-93
2023/12/10 07:47:41;;;;;;;;;3.75;2.00;;;;;9.83;81.02;100780.00;5092868;27;45626;-86
2023/12/10 07:50:07;;;;;;;;;2.00;2.00;;;;;9.96;81.51;100799.69;5051945;28;47202;-87
2023/12/10 07:52:33;;;;;;;;;6.50;1.00;;;;;9.93;81.04;100786.56;5074901;28;45534;-88
2023/12/10 07:54:58;;;;;;;;;4.75;2.00;;;;;9.91;80.66;100777.81;5065405;28;45514;-89
2023/12/10 07:57:24;;;;;;;;;2.75;2.75;;;;;10.08;80.57;100797.34;5065220;28;45649;-88
2023/12/10 07:59:49;;;;;;;;;8.75;3.25;;;;;10.00;80.69;100774.69;5069942;28;45051;-91
2023/12/10 08:02:15;;;;;;;;;4.00;2.00;;;;;10.04;81.10;100776.25;5054484;28;45591;-82
2023/12/10 08:04:40;;;;;;;;;7.25;2.25;;;;;10.13;80.83;100782.88;5068317;28;45292;-85
2023/12/10 08:07:05;;;;;;;;;3.00;2.00;;;;;10.15;80.11;100777.47;5063791;27;45389;-83
2023/12/10 08:09:31;;;;;;;;;5.50;2.00;;;;;10.09;80.31;100764.53;5069251;28;45530;-82
2023/12/10 08:11:57;;;;;;;;;10.25;2.50;;;;;10.09;80.74;100767.19;5050461;28;45543;-91
2023/12/10 08:14:25;;;;;;;;;3.67;2.00;;;;;10.01;81.45;100768.41;5070366;28;45570;-84
2023/12/10 08:16:52;;;;;;;;;3.25;3.25;;;;;9.97;81.42;100768.66;5057303;28;45367;-82
2023/12/10 08:19:20;;;;;;;;;9.00;3.75;;;;;9.94;81.44;100758.19;5063828;28;46269;-83
2023/12/10 08:21:45;;;;;;;;;4.33;3.00;;;;;9.97;81.86;100756.25;5093424;27;45455;-85
2023/12/10 08:24:13;;;;;;;;;9.50;2.00;;;;;9.91;81.50;100753.91;5093890;27;45444;-82
2023/12/10 08:26:40;;;;;;;;;6.00;2.25;;;;;9.91;81.46;100764.53;5084252;27;45475;-84
2023/12/10 08:29:05;;;;;;;;;3.00;3.00;;;;;9.93;81.60;100775.09;5061345;27;45976;-88
2023/12/10 08:31:33;;;;;;;;;8.00;4.00;;;;;9.95;82.36;100767.88;5089614;27;45438;-81
2023/12/10 08:33:58;;;;;;;;;4.00;1.75;;;;;9.98;81.52;100781.00;5106643;27;45441;-87
2023/12/10 08:36:24;;;;;;;;;2.00;2.00;;;;;10.05;80.83;100780.63;5088500;27;45417;-86
2023/12/10 08:38:49;;;;;;;;;4.67;3.00;;;;;10.09;81.32;100775.16;5080877;28;45951;-86
2023/12/10 08:41:14;;;;;;;;;2.33;2.33;;;;;10.15;81.08;100780.16;5081095;27;45695;-85
2023/12/10 08:43:40;;;;;;;;;4.67;2.33;;;;;10.17;80.78;100770.31;5063549;28;45777;-83
2023/12/10 08:46:08;;;;;;;;;5.33;2.00;;;;;10.18;80.75;100780.88;5080840;27;45246;-83
2023/12/10 08:48:33;;;;;;;;;7.00;3.00;;;;;10.14;80.94;100775.78;5086792;27;46017;-81
2023/12/10 08:50:58;;;;;;;;;2.00;1.00;;;;;10.17;80.92;100772.97;5089247;27;45389;-83
2023/12/10 08:53:24;;;;;;;;;8.75;4.25;;;;;10.13;80.85;100755.44;5083004;27;45240;-82
2023/12/10 08:55:49;;;;;;;;;6.50;3.00;;;;;10.17;80.56;100762.34;5087858;27;45366;-91
2023/12/10 08:58:15;;;;;;;;;8.50;5.00;;;;;10.22;81.27;100773.63;5096073;27;45479;-91
2023/12/10 09:00:41;;;;;;;;;3.67;3.00;;;;;10.21;81.31;100758.59;5092610;27;45465;-85
2023/12/10 09:03:07;;;;;;;;;10.00;3.67;;;;;10.19;80.82;100755.16;5072511;28;45519;-89
2023/12/10 09:05:32;;;;;;;;;1.67;1.33;;;;;10.15;81.78;100741.13;5071164;27;45560;-88
2023/12/10 09:07:58;;;;;;;;;9.67;4.33;;;;;10.27;80.82;100739.69;5098314;27;45886;-86
2023/12/10 09:10:23;;;;;;;;;6.67;3.00;;;;;10.29;80.48;100743.13;5087257;27;45379;-87
2023/12/10 09:12:48;;;;;;;;;6.33;3.00;;;;;10.24;80.95;100731.88;5104688;27;44957;-86
2023/12/10 09:15:14;;;;;;;;;7.67;2.00;;;;;10.27;80.73;100727.25;5096369;27;45264;-85
2023/12/10 09:17:39;;;;;;;;;9.50;2.50;;;;;10.31;80.84;100741.25;5091978;27;45244;-88
2023/12/10 09:20:07;;;;;;;;;5.00;2.25;;;;;10.35;81.35;100740.16;5090771;27;45366;-85
2023/12/10 09:22:32;;;;;;;;;3.33;2.00;;;;;10.34;80.98;100727.78;5095961;27;45397;-86
2023/12/10 09:24:57;;;;;;;;;4.00;1.00;;;;;10.26;80.29;100708.72;5090721;27;45548;-87
2023/12/10 09:27:23;;;;;;;;;6.00;2.50;;;;;10.29;80.95;100721.88;5084213;27;45987;-85
2023/12/10 09:29:49;;;;;;;;;4.25;3.25;;;;;10.30;81.21;100712.97;5069155;27;45393;-85
2023/12/10 09:32:16;;;;;;;;;3.67;3.00;;;;;10.30;81.31;100699.66;5095704;27;45351;-85
2023/12/10 09:34:42;;;;;;;;;5.25;4.00;;;;;10.28;82.02;100697.06;5088758;27;45397;-86
2023/12/10 09:37:10;;;;;;;;;13.00;5.75;;;;;10.21;82.56;100697.47;5084800;27;46130;-86
2023/12/10 09:39:36;;;;;;;;;10.50;6.50;;;;;10.04;82.69;100683.25;5075386;27;45386;-87
2023/12/10 09:42:02;;;;;;;;;6.33;3.33;;;;;10.21;82.88;100695.69;5080053;27;45493;-82
2023/12/10 09:44:28;;;;;;;;;4.67;4.00;;;;;10.22;82.85;100701.88;5072883;27;45506;-81
2023/12/10 09:46:53;;;;;;;;;5.33;2.00;;;;;10.12;83.15;100668.69;5076887;27;45359;-82
2023/12/10 09:49:20;;;;;;;;;7.33;4.67;;;;;10.05;83.46;100663.72;5066561;28;45473;-83
2023/12/10 09:51:46;;;;;;;;;12.25;4.25;;;;;10.12;83.11;100696.13;5082496;27;45448;-85
2023/12/10 09:54:11;;;;;;;;;9.75;6.50;;;;;10.22;83.32;100697.41;5071081;27;45490;-85
2023/12/10 09:56:38;;;;;;;;;8.00;4.00;;;;;10.29;83.09;100697.94;5097844;27;45385;-83
2023/12/10 09:59:04;;;;;;;;;7.67;3.33;;;;;10.40;82.86;100706.19;5086834;27;45446;-83
2023/12/10 10:01:29;;;;;;;;;5.00;3.75;;;;;10.41;82.97;100686.63;5089280;27;45562;-82
2023/12/10 10:03:59;;;;;;;;;6.50;4.00;;;;;10.48;81.99;100676.53;5080830;27;45509;-82
2023/12/10 10:06:34;;;;;;;;;7.75;4.25;;;;;10.44;81.87;100669.69;5068003;27;46691;-80
2023/12/10 10:09:00;;;;;;;;;8.00;3.25;;;;;10.45;81.94;100650.97;5085748;27;45357;-83
2023/12/10 10:11:25;;;;;;;;;3.25;3.00;;;;;10.57;81.55;100670.72;5073566;27;45468;-93
2023/12/10 10:14:00;;;;;;;;;10.00;4.00;;;;;10.53;81.42;100674.47;5057529;28;45461;-92
2023/12/10 10:16:26;;;;;;;;;8.00;3.00;;;;;10.51;81.77;100655.94;5075735;27;46200;-85
2023/12/10 10:18:51;;;;;;;;;6.75;6.75;;;;;10.26;81.73;100586.47;5080605;28;45442;-87
2023/12/10 10:21:17;;;;;;;;;7.25;5.00;;;;;10.51;81.32;100620.53;5087079;27;45460;-85
2023/12/10 10:23:43;;;;;;;;;12.25;5.00;;;;;10.45;80.83;100608.44;5083575;27;45682;-85
2023/12/10 10:26:35;;;;;;;;;4.00;2.00;;;;;10.52;80.85;100600.97;5060835;27;46088;-85
2023/12/10 10:29:30;;;;;;;;;4.00;3.00;;;;;10.84;80.24;100629.28;5071783;27;45501;-85
2023/12/10 10:31:59;;;;;;;;;3.00;3.00;;;;;10.78;79.15;100595.03;5072513;27;45491;-85
2023/12/10 10:34:25;;;;;;;;;4.00;2.75;;;;;10.94;78.50;100600.38;5085090;27;45642;-87
2023/12/10 10:37:07;;;;;;;;;7.75;3.00;;;;;10.84;78.28;100562.78;5058685;28;46705;-85
2023/12/10 10:39:34;;;;;;;;;4.00;1.00;;;;;11.01;77.18;100574.25;5061153;28;45662;-87
2023/12/10 10:42:04;;;;;;;;;8.33;2.67;;;;;11.24;76.83;100608.38;5060249;27;45481;-89
2023/12/10 10:44:31;;;;;;;;;4.67;3.67;;;;;11.20;76.82;100567.78;5110921;27;45248;-82
2023/12/10 10:46:58;;;;;;;;;3.00;2.00;;;;;11.21;76.25;100544.66;5081533;27;45458;-85
2023/12/10 10:49:25;;;;;;;;;3.00;2.00;;;;;11.35;75.27;100531.38;5086632;27;45402;-84
2023/12/10 10:51:51;;;;;;;;;2.33;2.00;;;;;11.62;74.98;100566.16;5061070;27;45455;-83
2023/12/10 10:54:18;;;;;;;;;3.33;2.33;;;;;11.62;74.47;100547.50;5062748;27;45596;-84
2023/12/10 10:56:45;;;;;;;;;4.33;2.67;;;;;11.54;73.64;100539.09;5091231;27;45956;-81
2023/12/10 10:59:30;;;;;;;;;2.67;1.00;;;;;11.79;73.54;100555.34;5078048;27;45520;-86
2023/12/10 11:01:58;;;;;;;;;4.67;1.00;;;;;11.88;72.91;100555.72;5081251;27;45437;-87
2023/12/10 11:04:23;;;;;;;;;2.00;2.00;;;;;11.90;72.63;100543.16;5081293;27;45338;-86
2023/12/10 11:06:50;;;;;;;;;4.00;2.67;;;;;11.95;72.93;100551.72;5094954;27;45421;-90
2023/12/10 11:09:17;;;;;;;;;8.33;3.00;;;;;12.00;72.14;100546.97;5090361;27;45397;-85
2023/12/10 11:11:43;;;;;;;;;3.33;1.67;;;;;12.00;71.92;100534.50;5100254;27;45481;-83
2023/12/10 11:14:21;;;;;;;;;3.00;3.00;;;;;12.06;71.79;100541.25;5083582;27;45157;-86
2023/12/10 11:17:02;;;;;;;;;3.00;1.33;;;;;12.13;71.93;100533.72;5081847;27;45435;-86
2023/12/10 11:19:32;;;;;;;;;3.00;2.00;;;;;12.19;71.76;100520.00;5062263;27;45274;-88
2023/12/10 11:22:04;;;;;;;;;8.33;1.67;;;;;12.24;71.42;100525.88;5053202;27;45268;-85
2023/12/10 11:24:29;;;;;;;;;3.67;2.00;;;;;12.21;70.80;100499.41;5091620;27;45503;-88